Terminal Aerodrome Forecast
Issued by NWS

Home | Current Version | Previous Version | Text Only | Print | Product List | Glossary On
Versions: 1 2 3 4 5 6 7 8 9 10 11 12 13 14
307
FTUS41 KBTV 222205 AAB
TAFMSS
TAF AMD
KMSS 222205Z 2222/2318 22015G23KT 5SM -TSRA BKN025CB
     FM222300 23014KT P6SM VCSH SCT015 BKN050
     FM230500 25012KT P6SM FEW040 SCT070
     FM231400 25013KT P6SM BKN040
     FM231700 25014G20KT P6SM SCT040=

USA.gov is the U.S. government's official web portal to all federal, state and local government web resources and services.